createdAt,value
2023-03-04T00:00:26.072Z,39.33
2023-03-04T00:00:59.134Z,41.20
2023-03-04T00:01:30.937Z,39.53
2023-03-04T00:02:03.273Z,40.83
2023-03-04T00:02:36.157Z,38.22
2023-03-04T00:03:09.439Z,43.28
2023-03-04T00:03:41.244Z,40.03
2023-03-04T00:04:14.103Z,40.92
2023-03-04T00:04:45.991Z,41.83
2023-03-04T00:05:17.937Z,38.33
2023-03-04T00:05:50.755Z,38.47
2023-03-04T00:06:24.053Z,40.83
2023-03-04T00:06:55.848Z,42.17
2023-03-04T00:07:28.631Z,43.55
2023-03-04T00:08:00.406Z,39.40
2023-03-04T00:08:32.228Z,42.58
2023-03-04T00:09:05.524Z,41.30
2023-03-04T00:09:37.348Z,39.80
2023-03-04T00:10:10.859Z,39.92
2023-03-04T00:10:44.012Z,44.13
2023-03-04T00:11:16.863Z,39.90
2023-03-04T00:11:48.677Z,40.35
2023-03-04T00:12:20.489Z,40.85
2023-03-04T00:12:53.259Z,41.58
2023-03-04T00:13:25.127Z,39.25
2023-03-04T00:13:57.315Z,40.95
2023-03-04T00:14:30.604Z,43.28
2023-03-04T00:15:02.542Z,40.25
2023-03-04T00:15:34.354Z,41.25
2023-03-04T00:16:07.992Z,39.45
2023-03-04T00:16:39.866Z,41.90
2023-03-04T00:17:11.773Z,41.42
2023-03-04T00:17:46.082Z,41.20
2023-03-04T00:18:18.213Z,43.30
2023-03-04T00:18:50.053Z,40.15
2023-03-04T00:19:22.826Z,40.33
2023-03-04T00:19:54.616Z,40.25
2023-03-04T00:20:26.403Z,39.22
2023-03-04T00:20:59.164Z,40.65
2023-03-04T00:21:32.356Z,39.53
2023-03-04T00:22:04.571Z,40.63
2023-03-04T00:22:37.387Z,41.30
2023-03-04T00:23:09.294Z,42.65
2023-03-04T00:23:41.847Z,41.08
2023-03-04T00:24:14.605Z,42.25
2023-03-04T00:24:46.390Z,43.90
2023-03-04T00:25:18.325Z,38.92
2023-03-04T00:25:50.161Z,40.38
2023-03-04T00:26:23.744Z,43.97
2023-03-04T00:26:55.658Z,38.60
2023-03-04T00:27:27.438Z,41.75
2023-03-04T00:28:00.925Z,40.75
2023-03-04T00:28:32.722Z,38.92
2023-03-04T00:29:04.526Z,39.95
2023-03-04T00:29:37.297Z,40.22
2023-03-04T00:30:10.409Z,39.25
2023-03-04T00:30:42.207Z,39.90
2023-03-04T00:31:15.041Z,42.60
2023-03-04T00:31:46.946Z,42.13
2023-03-04T00:32:18.801Z,41.25
2023-03-04T00:32:51.729Z,42.10
2023-03-04T00:33:23.565Z,40.67
2023-03-04T00:33:55.367Z,39.25
2023-03-04T00:34:27.141Z,41.05
2023-03-04T00:34:59.937Z,40.78
2023-03-04T00:35:31.751Z,40.70
2023-03-04T00:36:04.688Z,42.53
2023-03-04T00:36:38.930Z,41.72
2023-03-04T00:37:11.003Z,42.88
2023-03-04T00:37:42.824Z,43.20
2023-03-04T00:38:14.647Z,42.88
2023-03-04T00:38:47.379Z,43.25
2023-03-04T00:39:20.045Z,45.97
2023-03-04T00:39:52.162Z,42.72
2023-03-04T00:40:24.921Z,40.90
2023-03-04T00:40:56.762Z,39.95
2023-03-04T00:41:28.557Z,40.97
2023-03-04T00:42:01.312Z,41.08
2023-03-04T00:42:33.120Z,40.92
2023-03-04T00:43:04.973Z,40.05
2023-03-04T00:43:37.748Z,41.72
2023-03-04T00:44:09.727Z,41.63
2023-03-04T00:44:41.655Z,39.00
2023-03-04T00:45:14.430Z,41.38
2023-03-04T00:45:46.347Z,40.58
2023-03-04T00:46:18.220Z,38.00
2023-03-04T00:46:51.072Z,38.63
2023-03-04T00:47:22.890Z,40.05
2023-03-04T00:47:54.696Z,39.90
2023-03-04T00:48:27.489Z,39.90
2023-03-04T00:48:59.288Z,41.50
2023-03-04T00:49:31.233Z,39.40
2023-03-04T00:50:04.865Z,40.55
2023-03-04T00:50:37.297Z,38.95
2023-03-04T00:51:09.157Z,40.30
2023-03-04T00:51:43.334Z,39.53
2023-03-04T00:52:15.146Z,41.40
2023-03-04T00:52:46.939Z,40.63
2023-03-04T00:53:19.961Z,40.28
2023-03-04T00:53:52.196Z,40.72
2023-03-04T00:54:24.010Z,40.50
2023-03-04T00:54:56.812Z,39.63
2023-03-04T00:55:28.737Z,39.03
2023-03-04T00:56:00.563Z,41.42
2023-03-04T00:56:33.293Z,38.03
2023-03-04T00:57:05.101Z,41.90
2023-03-04T00:57:36.944Z,37.88
2023-03-04T00:58:09.761Z,38.17
2023-03-04T00:58:41.700Z,40.90
2023-03-04T00:59:13.487Z,41.15
2023-03-04T00:59:46.273Z,39.05
2023-03-04T01:00:18.944Z,38.63
2023-03-04T01:00:50.747Z,38.67
2023-03-04T01:01:23.607Z,39.13
2023-03-04T01:01:55.472Z,36.83
2023-03-04T01:02:27.452Z,42.42
2023-03-04T01:02:59.324Z,38.38
2023-03-04T01:03:32.997Z,39.55
2023-03-04T01:04:05.028Z,37.67
2023-03-04T01:04:37.433Z,39.63
2023-03-04T01:05:11.004Z,37.47
2023-03-04T01:05:42.880Z,38.97
2023-03-04T01:06:14.769Z,44.38
2023-03-04T01:06:48.904Z,38.85
2023-03-04T01:07:20.917Z,41.25
2023-03-04T01:07:52.704Z,41.33
2023-03-04T01:08:24.590Z,39.38
2023-03-04T01:08:57.398Z,38.90
2023-03-04T01:09:29.200Z,41.55
2023-03-04T01:10:01.240Z,40.33
2023-03-04T01:10:33.454Z,40.88
2023-03-04T01:11:06.556Z,39.58
2023-03-04T01:11:38.400Z,41.55
2023-03-04T01:12:10.178Z,40.58
2023-03-04T01:12:43.230Z,40.25
2023-03-04T01:13:15.053Z,38.63
2023-03-04T01:13:46.915Z,41.75
2023-03-04T01:14:19.959Z,40.58
2023-03-04T01:14:51.887Z,41.08
2023-03-04T01:15:24.076Z,38.10
2023-03-04T01:15:56.017Z,38.88
2023-03-04T01:16:28.843Z,38.45
2023-03-04T01:17:00.710Z,42.53
2023-03-04T01:17:32.622Z,40.13
2023-03-04T01:18:05.484Z,43.88
2023-03-04T01:18:37.484Z,39.97
2023-03-04T01:19:09.294Z,40.03
2023-03-04T01:19:42.086Z,41.85
2023-03-04T01:20:14.387Z,39.10
2023-03-04T01:20:46.193Z,37.75
2023-03-04T01:21:19.185Z,42.20
2023-03-04T01:21:52.588Z,40.58
2023-03-04T01:22:24.518Z,38.55
2023-03-04T01:22:57.292Z,38.70
2023-03-04T01:23:29.189Z,39.13
2023-03-04T01:24:01.025Z,39.25
2023-03-04T01:24:33.828Z,40.13
2023-03-04T01:25:07.146Z,40.53
2023-03-04T01:25:39.085Z,39.53
2023-03-04T01:26:11.852Z,37.97
2023-03-04T01:26:43.780Z,39.50
2023-03-04T01:27:15.592Z,38.40
2023-03-04T01:27:47.412Z,38.78
2023-03-04T01:28:20.181Z,36.13
2023-03-04T01:28:52.083Z,39.88
2023-03-04T01:29:23.891Z,39.30
2023-03-04T01:29:56.700Z,36.90
2023-03-04T01:30:28.591Z,38.90
2023-03-04T01:31:00.402Z,36.75
2023-03-04T01:31:33.240Z,40.70
2023-03-04T01:32:05.552Z,40.78
2023-03-04T01:32:37.458Z,40.08
2023-03-04T01:33:10.263Z,37.58
2023-03-04T01:33:42.133Z,40.78
2023-03-04T01:34:14.052Z,40.80
2023-03-04T01:34:47.216Z,37.92
2023-03-04T01:35:19.018Z,37.88
2023-03-04T01:35:50.862Z,39.88
2023-03-04T01:36:23.669Z,41.75
2023-03-04T01:36:56.845Z,40.05
2023-03-04T01:37:28.727Z,37.38
2023-03-04T01:38:01.584Z,36.95
2023-03-04T01:38:33.421Z,39.97
2023-03-04T01:39:05.450Z,39.90
2023-03-04T01:39:38.192Z,40.00
2023-03-04T01:40:11.327Z,38.85
2023-03-04T01:40:43.152Z,42.50
2023-03-04T01:41:26.607Z,40.90
2023-03-04T01:41:58.748Z,36.95
2023-03-04T01:42:33.864Z,39.22
2023-03-04T01:43:07.015Z,40.03
2023-03-04T01:43:39.239Z,35.78
2023-03-04T01:44:12.050Z,40.92
2023-03-04T01:44:45.509Z,38.85
2023-03-04T01:45:19.387Z,39.03
2023-03-04T01:45:52.978Z,37.60
2023-03-04T01:46:26.090Z,38.00
2023-03-04T01:46:58.121Z,37.80
2023-03-04T01:47:32.900Z,38.08
2023-03-04T01:48:05.897Z,39.13
2023-03-04T01:48:38.849Z,38.95
2023-03-04T01:49:14.322Z,38.22
2023-03-04T01:49:51.850Z,37.95
2023-03-04T01:50:28.555Z,38.75
2023-03-04T01:51:02.992Z,37.45
2023-03-04T01:51:35.793Z,38.10
2023-03-04T01:52:12.204Z,38.60
2023-03-04T01:52:44.016Z,38.90
2023-03-04T01:53:21.119Z,38.85
2023-03-04T01:53:54.808Z,38.38
2023-03-04T01:54:26.696Z,38.72
2023-03-04T01:54:59.523Z,39.85
2023-03-04T01:55:32.081Z,37.53
2023-03-04T01:56:12.672Z,38.55
2023-03-04T01:56:47.255Z,39.35
2023-03-04T01:57:22.086Z,37.42
2023-03-04T01:57:54.624Z,37.70
2023-03-04T01:58:31.130Z,38.20
2023-03-04T01:59:11.537Z,38.13
2023-03-04T01:59:43.790Z,35.08
2023-03-04T02:00:23.067Z,38.50
2023-03-04T02:00:54.895Z,38.22
2023-03-04T02:01:26.749Z,39.17
2023-03-04T02:02:01.227Z,39.47
2023-03-04T02:02:33.044Z,37.22
2023-03-04T02:03:07.825Z,37.22
2023-03-04T02:03:41.373Z,38.97
2023-03-04T02:04:13.864Z,38.50
2023-03-04T02:04:45.852Z,41.47
2023-03-04T02:05:19.171Z,36.38
2023-03-04T02:05:53.528Z,39.03
2023-03-04T02:06:25.365Z,37.35
2023-03-04T02:06:59.919Z,38.22
2023-03-04T02:07:33.219Z,37.03
2023-03-04T02:08:05.913Z,36.92
2023-03-04T02:08:38.674Z,37.35
2023-03-04T02:09:11.314Z,42.25
2023-03-04T02:09:43.164Z,39.17
2023-03-04T02:10:15.013Z,38.90
2023-03-04T02:10:48.384Z,37.58
2023-03-04T02:11:20.208Z,39.60
2023-03-04T02:11:52.751Z,37.25
2023-03-04T02:12:24.555Z,39.95
2023-03-04T02:12:57.365Z,38.50
2023-03-04T02:13:29.226Z,38.95
2023-03-04T02:14:01.040Z,37.92
2023-03-04T02:14:34.056Z,37.85
2023-03-04T02:15:07.807Z,38.38
2023-03-04T02:15:39.799Z,36.25
2023-03-04T02:16:12.713Z,39.20
2023-03-04T02:16:44.703Z,38.92
2023-03-04T02:17:16.498Z,37.92
2023-03-04T02:17:48.348Z,36.85
2023-03-04T02:18:22.932Z,38.80
2023-03-04T02:18:55.248Z,38.33
2023-03-04T02:19:42.851Z,38.28
2023-03-04T02:20:30.780Z,37.35
2023-03-04T02:21:12.726Z,36.15
2023-03-04T02:21:44.550Z,38.30
2023-03-04T02:22:16.347Z,39.40
2023-03-04T02:22:57.979Z,37.90
2023-03-04T02:23:35.262Z,39.25
2023-03-04T02:24:16.028Z,36.80
2023-03-04T02:24:52.565Z,38.60
2023-03-04T02:25:31.067Z,37.40
2023-03-04T02:26:19.701Z,36.95
2023-03-04T02:26:51.542Z,37.60
2023-03-04T02:27:23.576Z,41.55
2023-03-04T02:27:56.440Z,37.80
2023-03-04T02:28:28.291Z,39.70
2023-03-04T02:29:01.320Z,38.85
2023-03-04T02:29:34.084Z,38.47
2023-03-04T02:30:07.148Z,37.50
2023-03-04T02:30:39.107Z,37.58
2023-03-04T02:31:24.088Z,37.97
2023-03-04T02:31:56.130Z,34.83
2023-03-04T02:32:28.147Z,38.47
2023-03-04T02:33:01.010Z,37.40
2023-03-04T02:33:33.177Z,40.20
2023-03-04T02:34:07.798Z,36.95
2023-03-04T02:34:46.462Z,38.60
2023-03-04T02:35:20.153Z,37.08
2023-03-04T02:35:52.146Z,34.67
2023-03-04T02:36:25.320Z,38.13
2023-03-04T02:36:59.092Z,39.42
2023-03-04T02:37:30.939Z,35.05
2023-03-04T02:38:02.759Z,34.20
2023-03-04T02:38:34.574Z,36.85
2023-03-04T02:39:12.999Z,35.88
2023-03-04T02:39:47.332Z,38.10
2023-03-04T02:40:24.530Z,39.13
2023-03-04T02:40:58.252Z,34.03
2023-03-04T02:41:31.668Z,36.00
2023-03-04T02:42:04.737Z,39.00
2023-03-04T02:42:37.519Z,37.17
2023-03-04T02:43:11.352Z,36.42
2023-03-04T02:43:45.025Z,34.15
2023-03-04T02:44:19.173Z,36.75
2023-03-04T02:45:00.956Z,35.80
2023-03-04T02:45:40.928Z,37.67
2023-03-04T02:46:13.669Z,35.83
2023-03-04T02:46:46.636Z,37.53
2023-03-04T02:47:19.639Z,37.42
2023-03-04T02:47:51.424Z,37.30
2023-03-04T02:48:23.921Z,36.53
2023-03-04T02:48:55.780Z,37.97
2023-03-04T02:49:31.076Z,35.35
2023-03-04T02:50:02.917Z,36.95
2023-03-04T02:50:38.080Z,35.00
2023-03-04T02:51:09.936Z,35.92
2023-03-04T02:51:42.804Z,39.85
2023-03-04T02:52:18.093Z,37.97
2023-03-04T02:52:49.952Z,35.50
2023-03-04T02:53:23.218Z,36.42
2023-03-04T02:53:55.012Z,36.92
2023-03-04T02:54:26.927Z,36.65
2023-03-04T02:54:59.697Z,37.65
2023-03-04T02:55:32.234Z,37.95
2023-03-04T02:56:04.651Z,36.80
2023-03-04T02:56:38.741Z,36.13
2023-03-04T02:57:12.786Z,37.00
2023-03-04T02:57:44.544Z,37.05
2023-03-04T02:58:17.541Z,36.55
2023-03-04T02:58:49.326Z,34.63
2023-03-04T02:59:22.730Z,36.00
2023-03-04T02:59:55.483Z,35.90
2023-03-04T03:00:27.678Z,34.95
2023-03-04T03:00:59.669Z,34.42
2023-03-04T03:01:32.475Z,37.85
2023-03-04T03:02:04.734Z,35.28
2023-03-04T03:02:36.569Z,35.55
2023-03-04T03:03:09.969Z,35.15
2023-03-04T03:03:41.792Z,37.03
2023-03-04T03:04:13.664Z,35.65
2023-03-04T03:04:45.506Z,37.28
2023-03-04T03:05:19.318Z,34.45
2023-03-04T03:05:51.285Z,33.90
2023-03-04T03:06:24.054Z,35.92
2023-03-04T03:06:56.058Z,36.83
2023-03-04T03:07:27.849Z,35.38
2023-03-04T03:08:00.684Z,37.60
2023-03-04T03:08:32.462Z,35.15
2023-03-04T03:09:04.763Z,36.75
2023-03-04T03:09:37.544Z,35.10
2023-03-04T03:10:10.818Z,36.97
2023-03-04T03:10:42.700Z,35.60
2023-03-04T03:11:15.466Z,34.15
2023-03-04T03:11:48.718Z,33.63
2023-03-04T03:12:20.536Z,35.90
2023-03-04T03:12:52.939Z,33.90
2023-03-04T03:13:25.740Z,35.25
2023-03-04T03:13:57.691Z,36.10
2023-03-04T03:14:29.511Z,35.28
2023-03-04T03:15:01.310Z,36.40
2023-03-04T03:15:34.171Z,35.90
2023-03-04T03:16:06.479Z,37.05
2023-03-04T03:16:38.314Z,36.90
2023-03-04T03:17:10.447Z,37.35
2023-03-04T03:17:43.348Z,34.65
2023-03-04T03:18:15.185Z,37.03
2023-03-04T03:18:47.009Z,35.45
2023-03-04T03:19:19.798Z,34.58
2023-03-04T03:19:51.622Z,36.58
2023-03-04T03:20:23.436Z,34.97
2023-03-04T03:20:56.209Z,35.67
2023-03-04T03:21:28.143Z,35.85
2023-03-04T03:21:59.956Z,34.58
2023-03-04T03:22:31.836Z,34.13
2023-03-04T03:23:05.260Z,36.97
2023-03-04T03:23:37.090Z,34.50
2023-03-04T03:24:08.935Z,34.55
2023-03-04T03:24:41.743Z,36.92
2023-03-04T03:25:15.345Z,36.72
2023-03-04T03:25:47.131Z,36.47
2023-03-04T03:26:20.183Z,34.38
2023-03-04T03:26:53.321Z,37.00
2023-03-04T03:27:25.098Z,36.75
2023-03-04T03:27:57.892Z,36.13
2023-03-04T03:28:29.698Z,36.10
2023-03-04T03:29:01.496Z,36.10
2023-03-04T03:29:33.400Z,34.30
2023-03-04T03:30:07.678Z,34.05
2023-03-04T03:30:39.550Z,34.10
2023-03-04T03:31:11.531Z,37.47
2023-03-04T03:31:44.421Z,38.50
2023-03-04T03:32:16.565Z,37.22
2023-03-04T03:32:48.383Z,38.17
2023-03-04T03:33:21.139Z,37.08
2023-03-04T03:33:52.968Z,36.83
2023-03-04T03:34:24.875Z,35.67
2023-03-04T03:34:56.674Z,37.05
2023-03-04T03:35:29.661Z,35.15
2023-03-04T03:36:01.625Z,35.33
2023-03-04T03:36:33.480Z,37.10
2023-03-04T03:37:05.402Z,36.15
2023-03-04T03:37:38.304Z,36.03
2023-03-04T03:38:10.132Z,37.53
2023-03-04T03:38:41.959Z,35.92
2023-03-04T03:39:15.508Z,35.70
2023-03-04T03:39:47.304Z,37.65
2023-03-04T03:40:19.123Z,35.85
2023-03-04T03:40:51.874Z,37.75
2023-03-04T03:41:23.648Z,35.63
2023-03-04T03:41:56.812Z,36.20
2023-03-04T03:42:28.672Z,35.28
2023-03-04T03:43:01.434Z,34.92
2023-03-04T03:43:33.247Z,33.85
2023-03-04T03:44:05.362Z,36.63
2023-03-04T03:44:37.176Z,34.75
2023-03-04T03:45:10.768Z,35.00
2023-03-04T03:45:42.639Z,36.22
2023-03-04T03:46:14.460Z,36.05
2023-03-04T03:46:47.738Z,38.45
2023-03-04T03:47:19.522Z,35.55
2023-03-04T03:47:51.328Z,36.95
2023-03-04T03:48:24.094Z,35.00
2023-03-04T03:48:55.880Z,36.58
2023-03-04T03:49:27.710Z,36.00
2023-03-04T03:49:59.565Z,34.13
2023-03-04T03:50:33.243Z,36.58
2023-03-04T03:51:05.407Z,38.30
2023-03-04T03:51:37.278Z,37.90
2023-03-04T03:52:10.021Z,37.13
2023-03-04T03:52:41.832Z,36.10
2023-03-04T03:53:13.795Z,34.10
2023-03-04T03:53:46.575Z,37.65
2023-03-04T03:54:18.400Z,35.50
2023-03-04T03:54:50.218Z,34.40
2023-03-04T03:55:23.078Z,35.30
2023-03-04T03:55:54.861Z,36.38
2023-03-04T03:56:26.680Z,37.35
2023-03-04T03:57:00.833Z,35.80
2023-03-04T03:57:32.652Z,36.20
2023-03-04T03:58:04.610Z,34.33
2023-03-04T03:58:37.381Z,35.35
2023-03-04T03:59:09.197Z,35.28
2023-03-04T03:59:41.024Z,38.17
2023-03-04T04:00:15.044Z,36.97
2023-03-04T04:00:46.822Z,34.67
2023-03-04T04:01:18.656Z,36.60
2023-03-04T04:01:50.552Z,36.35
2023-03-04T04:02:23.647Z,36.55
2023-03-04T04:02:57.376Z,36.42
2023-03-04T04:03:29.450Z,39.60
2023-03-04T04:04:02.347Z,35.30
2023-03-04T04:04:34.200Z,37.65
2023-03-04T04:05:07.355Z,36.17
2023-03-04T04:05:40.156Z,34.17
2023-03-04T04:06:12.063Z,37.10
2023-03-04T04:06:43.895Z,36.28
2023-03-04T04:07:15.786Z,38.45
2023-03-04T04:07:48.553Z,34.30
2023-03-04T04:08:20.372Z,34.65
2023-03-04T04:08:52.644Z,33.90
2023-03-04T04:09:25.454Z,37.28
2023-03-04T04:09:57.784Z,36.30
2023-03-04T04:10:29.559Z,36.63
2023-03-04T04:11:02.356Z,35.67
2023-03-04T04:11:34.160Z,35.65
2023-03-04T04:12:08.017Z,36.70
2023-03-04T04:12:40.833Z,37.63
2023-03-04T04:13:12.636Z,35.53
2023-03-04T04:13:44.459Z,37.95
2023-03-04T04:14:17.250Z,37.15
2023-03-04T04:14:49.085Z,35.75
2023-03-04T04:15:21.106Z,37.88
2023-03-04T04:15:54.185Z,38.85
2023-03-04T04:16:26.070Z,36.80
2023-03-04T04:16:57.893Z,35.65
2023-03-04T04:17:30.627Z,36.13
2023-03-04T04:18:02.517Z,35.15
2023-03-04T04:18:34.292Z,36.88
2023-03-04T04:19:07.391Z,37.30
2023-03-04T04:19:40.587Z,35.50
2023-03-04T04:20:12.651Z,36.33
2023-03-04T04:20:45.439Z,38.40
2023-03-04T04:21:17.281Z,36.47
2023-03-04T04:21:49.263Z,35.95
2023-03-04T04:22:21.335Z,37.33
2023-03-04T04:22:54.189Z,34.35
2023-03-04T04:23:25.993Z,36.65
2023-03-04T04:23:57.808Z,37.25
2023-03-04T04:24:30.866Z,35.85
2023-03-04T04:25:02.693Z,37.38
2023-03-04T04:25:34.641Z,34.45
2023-03-04T04:26:07.446Z,37.13
2023-03-04T04:26:39.421Z,35.08
2023-03-04T04:27:13.120Z,38.17
2023-03-04T04:27:45.892Z,35.50
2023-03-04T04:28:17.692Z,34.25
2023-03-04T04:28:49.588Z,35.72
2023-03-04T04:29:23.064Z,35.50
2023-03-04T04:29:54.832Z,35.90
2023-03-04T04:30:26.986Z,35.55
2023-03-04T04:30:58.816Z,37.15
2023-03-04T04:31:31.624Z,35.45
2023-03-04T04:32:04.083Z,35.78
2023-03-04T04:32:35.915Z,37.50
2023-03-04T04:33:08.743Z,36.72
2023-03-04T04:33:40.643Z,38.08
2023-03-04T04:34:12.546Z,36.75
2023-03-04T04:34:45.363Z,34.15
2023-03-04T04:35:17.403Z,35.50
2023-03-04T04:35:49.228Z,35.40
2023-03-04T04:36:22.029Z,37.17
2023-03-04T04:36:54.805Z,35.40
2023-03-04T04:37:26.603Z,34.92
2023-03-04T04:37:58.411Z,36.38
2023-03-04T04:38:30.387Z,36.15
2023-03-04T04:39:03.595Z,35.08
2023-03-04T04:39:35.496Z,35.83
2023-03-04T04:40:08.552Z,36.00
2023-03-04T04:40:42.891Z,34.55
2023-03-04T04:41:20.437Z,36.80
2023-03-04T04:41:53.236Z,34.28
2023-03-04T04:42:27.475Z,34.65
2023-03-04T04:43:00.257Z,31.67
2023-03-04T04:43:32.047Z,35.15
2023-03-04T04:44:04.222Z,32.80
2023-03-04T04:44:38.734Z,33.55
2023-03-04T04:45:11.305Z,32.13
2023-03-04T04:45:43.113Z,33.53
2023-03-04T04:46:16.527Z,34.92
2023-03-04T04:46:48.638Z,33.63
2023-03-04T04:47:20.456Z,33.53
2023-03-04T04:47:53.560Z,33.72
2023-03-04T04:48:25.490Z,32.47
2023-03-04T04:48:57.599Z,31.55
2023-03-04T04:49:30.319Z,34.55
2023-03-04T04:50:02.172Z,34.60
2023-03-04T04:50:33.959Z,34.70
2023-03-04T04:51:06.963Z,34.00
2023-03-04T04:51:39.410Z,34.40
2023-03-04T04:52:11.711Z,34.55
2023-03-04T04:52:44.524Z,36.92
2023-03-04T04:53:16.315Z,33.25
2023-03-04T04:53:48.214Z,35.78
2023-03-04T04:54:21.038Z,33.33
2023-03-04T04:54:52.822Z,34.70
2023-03-04T04:55:24.700Z,34.67
2023-03-04T04:55:56.561Z,32.95
2023-03-04T04:56:30.526Z,32.05
2023-03-04T04:57:02.324Z,33.65
2023-03-04T04:57:35.662Z,33.42
2023-03-04T04:58:08.684Z,33.05
2023-03-04T04:58:40.756Z,33.75
2023-03-04T04:59:12.732Z,32.75
2023-03-04T04:59:45.503Z,32.55
2023-03-04T05:00:18.975Z,33.72
2023-03-04T05:00:50.918Z,33.42
2023-03-04T05:01:23.996Z,34.72
2023-03-04T05:01:55.814Z,33.60
2023-03-04T05:02:27.650Z,32.15
2023-03-04T05:03:00.495Z,33.55
2023-03-04T05:03:33.122Z,34.25
2023-03-04T05:04:05.499Z,33.78
2023-03-04T05:04:38.345Z,33.20
2023-03-04T05:05:10.471Z,35.08
2023-03-04T05:05:42.587Z,33.33
2023-03-04T05:06:15.369Z,33.35
2023-03-04T05:06:47.188Z,31.48
2023-03-04T05:07:19.031Z,34.15
2023-03-04T05:07:50.878Z,34.63
2023-03-04T05:08:23.647Z,33.67
2023-03-04T05:08:55.685Z,31.60
2023-03-04T05:09:27.496Z,34.40
2023-03-04T05:10:00.292Z,32.40
2023-03-04T05:10:32.273Z,33.60
2023-03-04T05:11:05.064Z,33.38
2023-03-04T05:11:37.825Z,33.50
2023-03-04T05:12:09.652Z,34.75
2023-03-04T05:12:44.295Z,34.58
2023-03-04T05:13:17.128Z,33.75
2023-03-04T05:13:49.206Z,33.25
2023-03-04T05:14:21.153Z,32.85
2023-03-04T05:14:53.908Z,35.40
2023-03-04T05:15:25.794Z,35.05
2023-03-04T05:15:57.853Z,33.88
2023-03-04T05:16:30.649Z,34.03
2023-03-04T05:17:02.458Z,33.88
2023-03-04T05:17:34.337Z,32.90
2023-03-04T05:18:07.189Z,34.47
2023-03-04T05:18:39.167Z,33.67
2023-03-04T05:19:11.324Z,36.30
2023-03-04T05:19:44.116Z,34.08
2023-03-04T05:20:16.202Z,31.05
2023-03-04T05:20:51.449Z,32.35
2023-03-04T05:21:24.277Z,33.30
2023-03-04T05:21:56.161Z,35.45
2023-03-04T05:22:27.966Z,35.45
2023-03-04T05:23:00.875Z,35.17
2023-03-04T05:23:35.597Z,34.53
2023-03-04T05:24:08.422Z,33.33
2023-03-04T05:24:41.174Z,32.88
2023-03-04T05:25:13.055Z,32.33
2023-03-04T05:25:44.910Z,33.17
2023-03-04T05:26:19.270Z,32.60
2023-03-04T05:26:51.052Z,34.15
2023-03-04T05:27:22.874Z,31.95
2023-03-04T05:27:56.974Z,32.25
2023-03-04T05:28:28.787Z,34.10
2023-03-04T05:29:00.577Z,32.65
2023-03-04T05:29:33.377Z,33.40
2023-03-04T05:30:06.238Z,34.35
2023-03-04T05:30:38.243Z,31.77
2023-03-04T05:31:11.917Z,31.75
2023-03-04T05:31:43.750Z,33.53
2023-03-04T05:32:15.605Z,33.97
2023-03-04T05:32:47.444Z,33.15
2023-03-04T05:33:20.486Z,33.38
2023-03-04T05:33:52.282Z,33.90
2023-03-04T05:34:24.078Z,32.40
2023-03-04T05:34:56.821Z,33.83
2023-03-04T05:35:29.180Z,34.80
2023-03-04T05:36:01.795Z,33.65
2023-03-04T05:36:34.663Z,32.53
2023-03-04T05:37:06.505Z,31.95
2023-03-04T05:37:38.323Z,31.92
2023-03-04T05:38:12.838Z,32.33
2023-03-04T05:38:45.596Z,32.58
2023-03-04T05:39:17.439Z,33.85
2023-03-04T05:39:49.243Z,33.53
2023-03-04T05:40:22.042Z,31.25
2023-03-04T05:40:57.657Z,32.53
2023-03-04T05:41:29.504Z,33.50
2023-03-04T05:42:02.299Z,35.17
2023-03-04T05:42:34.080Z,32.70
2023-03-04T05:43:07.832Z,32.08
2023-03-04T05:43:43.577Z,33.40
2023-03-04T05:44:15.370Z,33.17
2023-03-04T05:44:47.145Z,32.13
2023-03-04T05:45:20.029Z,32.78
2023-03-04T05:45:51.849Z,32.33
2023-03-04T05:46:25.435Z,32.65
2023-03-04T05:46:58.391Z,30.58
2023-03-04T05:47:30.187Z,33.05
2023-03-04T05:48:02.982Z,32.72
2023-03-04T05:48:35.784Z,33.38
2023-03-04T05:49:07.622Z,34.25
2023-03-04T05:49:40.971Z,31.23
2023-03-04T05:50:13.837Z,31.23
2023-03-04T05:50:45.675Z,31.38
2023-03-04T05:51:17.469Z,33.47
2023-03-04T05:51:50.228Z,33.88
2023-03-04T05:52:22.050Z,30.88
2023-03-04T05:52:53.983Z,34.15
2023-03-04T05:53:27.177Z,32.92
2023-03-04T05:53:58.986Z,33.75
2023-03-04T05:54:30.776Z,30.75
2023-03-04T05:55:03.610Z,30.90
2023-03-04T05:55:35.466Z,32.50
2023-03-04T05:56:08.497Z,32.70
2023-03-04T05:56:41.303Z,32.72
2023-03-04T05:57:13.157Z,33.25
2023-03-04T05:57:45.315Z,30.85
2023-03-04T05:58:20.347Z,33.58
2023-03-04T05:58:52.217Z,31.50
2023-03-04T05:59:24.206Z,33.28
2023-03-04T05:59:56.992Z,31.88
2023-03-04T06:00:29.058Z,33.30
2023-03-04T06:01:00.938Z,33.35
2023-03-04T06:01:33.761Z,33.60
2023-03-04T06:02:05.545Z,33.58
2023-03-04T06:02:37.845Z,31.95
2023-03-04T06:03:16.563Z,32.67
2023-03-04T06:03:49.184Z,32.97
2023-03-04T06:04:21.000Z,33.17
2023-03-04T06:04:53.798Z,34.45
2023-03-04T06:05:25.602Z,32.72
2023-03-04T06:05:58.683Z,32.22
2023-03-04T06:06:31.457Z,32.78
2023-03-04T06:07:03.268Z,34.20
2023-03-04T06:07:35.152Z,30.83
2023-03-04T06:08:07.939Z,32.22
2023-03-04T06:08:39.768Z,34.78
2023-03-04T06:09:11.545Z,32.17
2023-03-04T06:09:45.097Z,31.70
2023-03-04T06:10:18.027Z,32.55
2023-03-04T06:10:53.313Z,32.08
2023-03-04T06:11:26.075Z,32.38
2023-03-04T06:11:57.856Z,34.75
2023-03-04T06:12:29.773Z,31.95
2023-03-04T06:13:02.539Z,33.53
2023-03-04T06:13:36.120Z,29.67
2023-03-04T06:14:09.009Z,34.95
2023-03-04T06:14:40.866Z,31.90
2023-03-04T06:15:13.566Z,31.75
2023-03-04T06:15:45.401Z,32.03
2023-03-04T06:16:18.219Z,33.35
2023-03-04T06:16:50.086Z,35.33
2023-03-04T06:17:22.088Z,35.03
2023-03-04T06:17:53.851Z,32.80
2023-03-04T06:18:27.874Z,30.33
2023-03-04T06:18:59.685Z,30.67
2023-03-04T06:19:31.522Z,32.63
2023-03-04T06:20:06.004Z,33.08
2023-03-04T06:20:38.149Z,32.15
2023-03-04T06:21:09.935Z,34.05
2023-03-04T06:21:42.721Z,32.28
2023-03-04T06:22:14.777Z,33.28
2023-03-04T06:22:46.579Z,32.03
2023-03-04T06:23:19.339Z,31.40
2023-03-04T06:23:51.155Z,34.05
2023-03-04T06:24:23.069Z,32.28
2023-03-04T06:24:55.820Z,32.35
2023-03-04T06:25:27.730Z,32.55
2023-03-04T06:26:00.819Z,34.10
2023-03-04T06:26:33.594Z,34.13
2023-03-04T06:27:06.462Z,33.58
2023-03-04T06:27:38.270Z,32.47
2023-03-04T06:28:11.039Z,31.65
2023-03-04T06:28:44.949Z,32.10
2023-03-04T06:29:17.059Z,31.77
2023-03-04T06:29:49.876Z,33.08
2023-03-04T06:30:21.903Z,35.85
2023-03-04T06:30:55.357Z,33.17
2023-03-04T06:31:27.300Z,31.10
2023-03-04T06:31:59.169Z,33.20
2023-03-04T06:32:32.000Z,32.67
2023-03-04T06:33:03.914Z,32.35
2023-03-04T06:33:36.706Z,33.90
2023-03-04T06:34:08.660Z,33.97
2023-03-04T06:34:40.514Z,33.97
2023-03-04T06:35:13.775Z,30.40
2023-03-04T06:35:45.635Z,32.15
2023-03-04T06:36:17.492Z,33.55
2023-03-04T06:36:50.874Z,32.42
2023-03-04T06:37:23.255Z,32.80
2023-03-04T06:37:55.024Z,37.35
2023-03-04T06:38:28.030Z,31.80
2023-03-04T06:39:01.732Z,33.42
2023-03-04T06:39:33.545Z,33.22
2023-03-04T06:40:07.639Z,31.60
2023-03-04T06:40:39.545Z,33.25
2023-03-04T06:41:12.733Z,32.45
2023-03-04T06:41:45.687Z,35.28
2023-03-04T06:42:17.554Z,32.05
2023-03-04T06:42:49.470Z,34.90
2023-03-04T06:43:22.625Z,32.50
2023-03-04T06:43:55.916Z,33.40
2023-03-04T06:44:28.708Z,32.80
2023-03-04T06:45:00.775Z,31.17
2023-03-04T06:45:32.537Z,35.17
2023-03-04T06:46:05.617Z,33.08
2023-03-04T06:46:37.479Z,33.88
2023-03-04T06:47:09.386Z,31.73
2023-03-04T06:47:43.044Z,31.98
2023-03-04T06:48:14.824Z,34.38
2023-03-04T06:48:47.627Z,32.05
2023-03-04T06:49:19.453Z,31.75
2023-03-04T06:49:51.328Z,32.00
2023-03-04T06:50:24.090Z,31.95
2023-03-04T06:50:55.914Z,33.85
2023-03-04T06:51:28.097Z,31.45
2023-03-04T06:52:00.854Z,32.50
2023-03-04T06:52:32.897Z,30.88
2023-03-04T06:53:04.684Z,30.50
2023-03-04T06:53:37.483Z,33.25
2023-03-04T06:54:10.122Z,30.25
2023-03-04T06:54:41.989Z,32.88
2023-03-04T06:55:14.761Z,33.10
2023-03-04T06:55:47.128Z,32.20
2023-03-04T06:56:19.142Z,32.22
2023-03-04T06:56:51.999Z,29.73
2023-03-04T06:57:23.859Z,35.33
2023-03-04T06:57:55.636Z,30.60
2023-03-04T06:58:28.409Z,31.05
2023-03-04T06:59:01.619Z,32.40
2023-03-04T06:59:34.725Z,29.95
2023-03-04T07:00:07.642Z,32.05
2023-03-04T07:00:39.628Z,29.95
2023-03-04T07:01:13.126Z,32.15
2023-03-04T07:01:45.968Z,30.15